Time;durP1;ratioP1;P1;durP2;ratioP2;P2;SDS_P1;SDS_P2;PMS_P1;PMS_P2;Temp;Humidity;BMP_temperature;BMP_pressure;BME280_temperature;BME280_humidity;BME280_pressure;Samples;Min_cycle;Max_cycle;Signal;HPM_P1;HPM_P2
2020/12/10 00:00:24;;;;;;;1.30;1.30;;;;;;;-2.49;100.00;100379.53;4429401;32;20565;-68
2020/12/10 00:02:49;;;;;;;1.25;1.25;;;;;;;-2.48;100.00;100381.19;4423439;32;20075;-68
2020/12/10 00:05:15;;;;;;;1.40;1.40;;;;;;;-2.47;100.00;100373.22;4427310;32;20522;-68
2020/12/10 00:07:40;;;;;;;1.25;1.25;;;;;;;-2.49;100.00;100379.53;4411823;32;20083;-69
2020/12/10 00:10:07;;;;;;;1.70;1.70;;;;;;;-2.48;100.00;100373.34;4421035;32;20108;-68
2020/12/10 00:12:33;;;;;;;1.40;1.40;;;;;;;-2.45;100.00;100380.91;4414342;32;20073;-68
2020/12/10 00:14:58;;;;;;;1.85;1.75;;;;;;;-2.44;100.00;100374.72;4416632;32;20083;-68
2020/12/10 00:17:25;;;;;;;1.30;1.30;;;;;;;-2.44;100.00;100366.88;4407335;32;20986;-70
2020/12/10 00:19:50;;;;;;;1.40;1.40;;;;;;;-2.50;100.00;100357.75;4405246;32;20180;-68
2020/12/10 00:22:16;;;;;;;1.40;1.40;;;;;;;-2.43;100.00;100367.69;4423812;32;20194;-68
2020/12/10 00:24:41;;;;;;;1.58;1.58;;;;;;;-2.62;100.00;100326.53;4403865;32;20076;-68
2020/12/10 00:27:07;;;;;;;1.50;1.50;;;;;;;-2.44;100.00;100359.00;4416461;32;20129;-67
2020/12/10 00:29:33;;;;;;;2.30;2.20;;;;;;;-2.41;100.00;100353.50;4409850;32;20096;-70
2020/12/10 00:31:58;;;;;;;1.65;1.65;;;;;;;-2.41;100.00;100345.66;4402136;32;20069;-68
2020/12/10 00:34:24;;;;;;;2.10;2.00;;;;;;;-2.39;100.00;100362.06;4423617;32;20077;-68
2020/12/10 00:36:49;;;;;;;1.30;1.30;;;;;;;-2.35;100.00;100342.47;4419764;32;20080;-67
2020/12/10 00:39:14;;;;;;;1.37;1.37;;;;;;;-2.28;100.00;100342.78;4415367;32;20377;-69
2020/12/10 00:41:40;;;;;;;1.40;1.40;;;;;;;-2.27;100.00;100341.84;4409972;32;20076;-67
2020/12/10 00:44:05;;;;;;;1.30;1.30;;;;;;;-2.25;100.00;100350.38;4416469;32;20122;-67
2020/12/10 00:46:31;;;;;;;1.67;1.67;;;;;;;-2.25;100.00;100344.31;4407503;32;20100;-67
2020/12/10 00:48:56;;;;;;;1.50;1.50;;;;;;;-2.25;100.00;100345.13;4423532;32;20073;-70
2020/12/10 00:51:21;;;;;;;1.30;1.30;;;;;;;-2.22;100.00;100350.13;4424903;32;20053;-70
2020/12/10 00:53:47;;;;;;;1.40;1.40;;;;;;;-2.20;100.00;100342.94;4419383;32;20064;-68
2020/12/10 00:56:12;;;;;;;1.73;1.73;;;;;;;-2.19;100.00;100342.00;4400222;32;20072;-69
2020/12/10 00:58:37;;;;;;;1.42;1.42;;;;;;;-2.20;100.00;100339.50;4424346;32;20113;-69
2020/12/10 01:01:03;;;;;;;1.45;1.45;;;;;;;-2.27;100.00;100329.56;4412162;32;20125;-68
2020/12/10 01:03:28;;;;;;;1.30;1.30;;;;;;;-2.20;100.00;100332.47;4422607;32;20068;-69
2020/12/10 01:05:54;;;;;;;1.80;1.80;;;;;;;-2.18;100.00;100324.47;4411160;32;20083;-69
2020/12/10 01:08:19;;;;;;;1.37;1.37;;;;;;;-2.17;100.00;100323.53;4420047;32;20096;-68
2020/12/10 01:10:44;;;;;;;1.30;1.30;;;;;;;-2.22;100.00;100318.69;4413563;32;20145;-68
2020/12/10 01:13:10;;;;;;;1.55;1.55;;;;;;;-2.30;100.00;100306.22;4409399;32;20068;-68
2020/12/10 01:15:35;;;;;;;1.30;1.30;;;;;;;-2.58;100.00;100258.06;4410690;32;20168;-68
2020/12/10 01:18:04;;;;;;;1.40;1.40;;;;;;;-2.27;100.00;100321.69;4414340;32;20084;-69
2020/12/10 01:20:29;;;;;;;1.50;1.50;;;;;;;-2.32;100.00;100321.25;4412272;32;20083;-68
2020/12/10 01:22:55;;;;;;;1.50;1.50;;;;;;;-2.47;100.00;100297.25;4408820;32;20060;-69
2020/12/10 01:25:20;;;;;;;1.20;1.20;;;;;;;-2.39;100.00;100317.53;4423485;32;20194;-68
2020/12/10 01:27:46;;;;;;;1.60;1.55;;;;;;;-2.38;100.00;100318.34;4422086;32;20669;-68
2020/12/10 01:30:11;;;;;;;1.37;1.37;;;;;;;-2.42;100.00;100309.94;4406979;32;20091;-68
2020/12/10 01:32:37;;;;;;;1.30;1.30;;;;;;;-2.44;100.00;100313.66;4407766;32;20056;-68
2020/12/10 01:35:03;;;;;;;1.40;1.40;;;;;;;-2.46;100.00;100319.03;4414604;32;20080;-68
2020/12/10 01:37:29;;;;;;;1.90;1.85;;;;;;;-2.48;100.00;100310.47;4419477;32;20069;-68
2020/12/10 01:39:54;;;;;;;1.20;1.20;;;;;;;-2.53;100.00;100304.81;4414591;32;20077;-69
2020/12/10 01:42:20;;;;;;;1.40;1.40;;;;;;;-2.53;100.00;100304.81;4409358;32;20464;-68
2020/12/10 01:44:45;;;;;;;1.40;1.40;;;;;;;-2.60;100.00;100294.03;4406078;32;20090;-68
2020/12/10 01:47:10;;;;;;;1.20;1.20;;;;;;;-2.54;100.00;100301.34;4414033;32;20073;-69
2020/12/10 01:49:37;;;;;;;2.15;2.05;;;;;;;-2.56;100.00;100294.59;4410604;32;20079;-69
2020/12/10 01:52:03;;;;;;;1.52;1.52;;;;;;;-2.85;100.00;100253.44;4414640;32;20064;-68
2020/12/10 01:54:28;;;;;;;1.40;1.40;;;;;;;-2.55;100.00;100296.25;4414432;32;20065;-69
2020/12/10 01:56:54;;;;;;;1.30;1.30;;;;;;;-2.88;100.00;100254.56;4408998;32;20183;-69
2020/12/10 01:59:20;;;;;;;1.20;1.20;;;;;;;-2.61;100.00;100296.78;4408835;32;20090;-69
2020/12/10 02:01:45;;;;;;;1.20;1.20;;;;;;;-2.65;100.00;100291.00;4405922;32;20072;-69
2020/12/10 02:04:30;;;;;;;1.92;1.83;;;;;;;-2.65;100.00;100291.81;4406803;32;20081;-69
2020/12/10 02:06:57;;;;;;;1.20;1.20;;;;;;;-2.76;100.00;100270.13;4405144;32;20170;-68
2020/12/10 02:09:22;;;;;;;1.20;1.20;;;;;;;-2.68;100.00;100296.50;4400368;32;20080;-68
2020/12/10 02:11:47;;;;;;;1.42;1.42;;;;;;;-2.66;100.00;100300.66;4381639;32;20940;-70
2020/12/10 02:14:13;;;;;;;1.37;1.37;;;;;;;-3.04;100.00;100244.56;4405819;32;20093;-68
2020/12/10 02:16:38;;;;;;;1.40;1.40;;;;;;;-2.75;100.00;100290.94;4404143;32;20156;-68
2020/12/10 02:19:04;;;;;;;2.05;1.95;;;;;;;-2.73;100.00;100288.22;4403289;32;20138;-68
2020/12/10 02:21:29;;;;;;;1.30;1.30;;;;;;;-2.71;100.00;100281.03;4409342;32;20157;-70
2020/12/10 02:23:54;;;;;;;1.30;1.30;;;;;;;-2.72;100.00;100264.50;4409056;32;20084;-68
2020/12/10 02:26:23;;;;;;;1.27;1.27;;;;;;;-2.67;100.00;100278.03;4406672;32;20057;-69
2020/12/10 02:28:49;;;;;;;1.20;1.20;;;;;;;-2.62;100.00;100276.78;4402891;32;20079;-68
2020/12/10 02:31:25;;;;;;;1.20;1.20;;;;;;;-2.59;100.00;100273.91;4394292;32;20683;-68
2020/12/10 02:33:50;;;;;;;1.90;1.80;;;;;;;-2.58;100.00;100260.69;4403501;32;20080;-69
2020/12/10 02:36:16;;;;;;;1.30;1.30;;;;;;;-2.53;100.00;100258.50;4403171;32;20053;-68
2020/12/10 02:38:41;;;;;;;1.30;1.30;;;;;;;-3.31;100.00;100132.69;4403595;32;20088;-67
2020/12/10 02:41:07;;;;;;;1.50;1.50;;;;;;;-2.49;100.00;100259.06;4380289;32;20142;-68
2020/12/10 02:43:32;;;;;;;1.30;1.30;;;;;;;-2.47;100.00;100250.13;4404501;32;20088;-70
2020/12/10 02:45:58;;;;;;;1.30;1.30;;;;;;;-2.47;100.00;100250.13;4401448;32;20158;-69
2020/12/10 02:48:23;;;;;;;1.20;1.20;;;;;;;-2.51;100.00;100250.50;4409575;32;20083;-68
2020/12/10 02:50:50;;;;;;;1.20;1.20;;;;;;;-2.53;100.00;100247.22;4397037;32;20082;-69
2020/12/10 02:53:16;;;;;;;1.20;1.20;;;;;;;-2.56;100.00;100248.28;4410085;32;20095;-68
2020/12/10 02:55:41;;;;;;;1.55;1.55;;;;;;;-2.58;100.00;100244.16;4403145;32;20082;-68
2020/12/10 02:58:06;;;;;;;1.40;1.40;;;;;;;-2.58;100.00;100244.16;4417248;32;20095;-68
2020/12/10 03:00:32;;;;;;;1.37;1.37;;;;;;;-2.62;100.00;100232.28;4411870;32;20082;-70
2020/12/10 03:02:57;;;;;;;1.25;1.25;;;;;;;-2.67;100.00;100228.28;4397989;32;20112;-69
2020/12/10 03:05:23;;;;;;;1.20;1.20;;;;;;;-2.77;100.00;100230.06;4410547;32;20155;-69
2020/12/10 03:07:48;;;;;;;1.20;1.20;;;;;;;-2.70;100.00;100223.31;4387543;32;20104;-69
2020/12/10 03:10:13;;;;;;;1.37;1.37;;;;;;;-2.72;100.00;100220.00;4410205;32;20071;-69
2020/12/10 03:12:39;;;;;;;1.20;1.20;;;;;;;-2.72;100.00;100216.56;4392201;32;20818;-68
2020/12/10 03:15:04;;;;;;;1.30;1.30;;;;;;;-2.71;100.00;100210.37;4387118;32;20080;-68
2020/12/10 03:17:30;;;;;;;1.98;1.87;;;;;;;-2.72;100.00;100206.94;4417591;32;20076;-71
2020/12/10 03:19:55;;;;;;;1.40;1.40;;;;;;;-2.73;100.00;100207.06;4395017;32;20069;-70
2020/12/10 03:22:21;;;;;;;1.70;1.60;;;;;;;-2.76;100.00;100200.31;4406508;32;20190;-70
2020/12/10 03:24:46;;;;;;;2.78;2.58;;;;;;;-2.78;100.00;100206.63;4386379;32;20138;-67
2020/12/10 03:27:11;;;;;;;1.92;1.83;;;;;;;-2.79;100.00;100212.81;4387525;32;20073;-68
2020/12/10 03:29:37;;;;;;;1.45;1.45;;;;;;;-2.85;100.00;100195.88;4400177;32;20080;-68
2020/12/10 03:32:03;;;;;;;1.65;1.65;;;;;;;-3.07;100.00;100165.50;4397121;32;21464;-68
2020/12/10 03:34:29;;;;;;;1.25;1.25;;;;;;;-2.85;100.00;100201.91;4402301;32;20057;-68
2020/12/10 03:36:56;;;;;;;1.70;1.60;;;;;;;-2.85;100.00;100201.09;4410577;32;20842;-68
2020/12/10 03:39:22;;;;;;;2.65;2.55;;;;;;;-2.96;100.00;100180.28;4393913;32;21160;-67
2020/12/10 03:41:48;;;;;;;1.20;1.20;;;;;;;-2.86;100.00;100194.22;4393982;32;20118;-68
2020/12/10 03:44:13;;;;;;;1.30;1.30;;;;;;;-2.85;100.00;100195.88;4388723;32;20073;-69
2020/12/10 03:46:39;;;;;;;1.30;1.30;;;;;;;-2.85;100.00;100185.41;4401274;32;20207;-68
2020/12/10 03:49:05;;;;;;;1.60;1.60;;;;;;;-2.86;100.00;100189.00;4403055;32;20084;-69
2020/12/10 03:51:31;;;;;;;1.20;1.20;;;;;;;-2.79;100.00;100187.50;4406223;32;20741;-69
2020/12/10 03:53:56;;;;;;;1.40;1.40;;;;;;;-2.84;100.00;100184.44;4401043;32;20528;-69
2020/12/10 03:56:21;;;;;;;1.20;1.20;;;;;;;-2.86;100.00;100187.19;4393699;32;20065;-69
2020/12/10 03:58:47;;;;;;;1.30;1.30;;;;;;;-2.83;100.00;100183.47;4393695;32;20084;-69
2020/12/10 04:01:12;;;;;;;1.40;1.40;;;;;;;-2.79;100.00;100182.25;4387717;32;20079;-69
2020/12/10 04:03:38;;;;;;;1.65;1.62;;;;;;;-2.78;100.00;100199.59;4405467;32;20092;-69
2020/12/10 04:06:03;;;;;;;2.62;1.52;;;;;;;-2.77;100.00;100176.88;4407644;32;20142;-70
2020/12/10 04:08:28;;;;;;;1.20;1.20;;;;;;;-2.80;100.00;100183.22;4410297;32;20589;-68
2020/12/10 04:10:54;;;;;;;1.30;1.30;;;;;;;-2.76;100.00;100179.37;4405039;32;20057;-69
2020/12/10 04:13:19;;;;;;;1.30;1.30;;;;;;;-2.74;100.00;100172.22;4393878;32;20073;-69
2020/12/10 04:15:45;;;;;;;1.20;1.20;;;;;;;-2.77;100.00;100175.09;4383506;32;20574;-69
2020/12/10 04:18:11;;;;;;;1.30;1.30;;;;;;;-2.76;100.00;100183.75;4399799;32;20069;-69
2020/12/10 04:20:36;;;;;;;1.40;1.40;;;;;;;-3.07;100.00;100134.97;4393336;32;20630;-68
2020/12/10 04:23:01;;;;;;;1.30;1.30;;;;;;;-2.82;100.00;100179.91;4403236;32;20619;-69
2020/12/10 04:25:27;;;;;;;1.30;1.30;;;;;;;-2.78;100.00;100188.31;4410761;32;20974;-68
2020/12/10 04:27:52;;;;;;;1.37;1.37;;;;;;;-2.81;100.00;100176.34;4383361;32;20057;-69
2020/12/10 04:30:21;;;;;;;1.30;1.30;;;;;;;-2.81;100.00;100178.94;4401892;32;20205;-69
2020/12/10 04:32:47;;;;;;;1.30;1.30;;;;;;;-2.79;100.00;100169.16;4393006;32;20669;-69
2020/12/10 04:35:12;;;;;;;1.45;1.45;;;;;;;-2.78;100.00;100169.97;4405762;32;20083;-69
2020/12/10 04:37:38;;;;;;;1.27;1.27;;;;;;;-2.77;100.00;100171.66;4423899;32;20085;-69
2020/12/10 04:40:03;;;;;;;1.50;1.50;;;;;;;-2.74;100.00;100172.22;4402299;32;20076;-69
2020/12/10 04:42:29;;;;;;;1.30;1.30;;;;;;;-2.67;100.00;100170.69;4410488;32;20231;-68
2020/12/10 04:44:54;;;;;;;1.62;1.62;;;;;;;-2.87;100.00;100132.37;4400113;32;20944;-68
2020/12/10 04:47:20;;;;;;;1.30;1.30;;;;;;;-2.70;100.00;100163.09;4423148;32;20088;-68
2020/12/10 04:49:45;;;;;;;1.40;1.40;;;;;;;-3.59;100.00;100024.41;4403321;32;20084;-69
2020/12/10 04:52:11;;;;;;;1.20;1.20;;;;;;;-2.95;100.00;100121.75;4384640;32;20073;-69
2020/12/10 04:54:37;;;;;;;1.20;1.20;;;;;;;-2.69;100.00;100161.31;4413439;32;20211;-68
2020/12/10 04:57:05;;;;;;;1.23;1.23;;;;;;;-2.73;100.00;100155.53;4410185;32;20091;-68
2020/12/10 04:59:30;;;;;;;1.20;1.20;;;;;;;-2.70;100.00;100163.09;4410301;32;20095;-69
2020/12/10 05:01:56;;;;;;;1.33;1.33;;;;;;;-2.68;100.00;100158.56;4420043;32;20097;-68
2020/12/10 05:04:22;;;;;;;1.60;1.60;;;;;;;-2.91;100.00;100108.25;4421895;32;20096;-68
2020/12/10 05:06:51;;;;;;;1.20;1.20;;;;;;;-2.63;100.00;100145.06;4416021;32;20079;-67
2020/12/10 05:09:17;;;;;;;1.58;1.55;;;;;;;-2.59;100.00;100149.06;4413723;32;20083;-69
2020/12/10 05:11:42;;;;;;;1.20;1.20;;;;;;;-2.59;100.00;100159.53;4418933;32;20065;-68
2020/12/10 05:14:07;;;;;;;1.30;1.30;;;;;;;-2.62;100.00;100158.97;4411981;32;20077;-68
2020/12/10 05:16:33;;;;;;;1.50;1.50;;;;;;;-2.67;100.00;100162.84;4402945;32;20064;-67
2020/12/10 05:19:20;;;;;;;1.15;1.15;;;;;;;-2.76;100.00;100163.66;4409995;32;20085;-68
2020/12/10 05:22:02;;;;;;;1.30;1.30;;;;;;;-2.84;100.00;100160.88;4428667;32;21057;-67
2020/12/10 05:24:27;;;;;;;1.55;1.55;;;;;;;-2.88;100.00;100159.50;4431617;32;20109;-67
2020/12/10 05:27:19;;;;;;;1.27;1.27;;;;;;;-2.88;100.00;100164.72;4403281;32;20089;-68
2020/12/10 05:29:44;;;;;;;1.45;1.45;;;;;;;-3.08;100.00;100159.44;4416198;32;20068;-69
2020/12/10 05:32:34;;;;;;;2.45;1.73;;;;;;;-3.02;100.00;100174.62;4424719;32;20202;-68
2020/12/10 05:35:16;;;;;;;1.45;1.45;;;;;;;-2.99;100.00;100168.28;4423308;32;20364;-68
2020/12/10 05:37:41;;;;;;;1.15;1.15;;;;;;;-2.93;100.00;100166.91;4430523;32;20089;-68
2020/12/10 05:40:07;;;;;;;1.50;1.50;;;;;;;-3.27;100.00;100107.09;4405122;32;20079;-67
2020/12/10 05:42:47;;;;;;;1.33;1.30;;;;;;;-2.91;100.00;100157.97;4402285;32;20175;-68
2020/12/10 05:45:17;;;;;;;1.40;1.40;;;;;;;-2.91;100.00;100154.53;4430602;32;20068;-68
2020/12/10 05:47:45;;;;;;;1.20;1.20;;;;;;;-2.92;100.00;100155.50;4411615;32;20076;-69
2020/12/10 05:50:12;;;;;;;1.30;1.30;;;;;;;-2.90;100.00;100157.03;4437553;32;20077;-67
2020/12/10 05:52:37;;;;;;;1.27;1.27;;;;;;;-2.89;100.00;100158.66;4406686;32;20087;-67
2020/12/10 05:55:03;;;;;;;1.50;1.50;;;;;;;-2.93;100.00;100162.53;4432824;32;20096;-68
2020/12/10 05:57:28;;;;;;;1.30;1.30;;;;;;;-2.93;100.00;100157.28;4399656;32;20079;-68
2020/12/10 05:59:54;;;;;;;1.50;1.50;;;;;;;-2.96;100.00;100159.34;4429442;32;20143;-69
2020/12/10 06:02:20;;;;;;;1.20;1.20;;;;;;;-3.23;100.00;100127.59;4417224;32;20138;-69
2020/12/10 06:04:45;;;;;;;2.20;1.83;;;;;;;-2.98;100.00;100158.63;4424451;32;20543;-70
2020/12/10 06:07:11;;;;;;;2.25;2.15;;;;;;;-2.94;100.00;100175.75;4413264;32;20087;-70
2020/12/10 06:09:36;;;;;;;1.30;1.30;;;;;;;-2.91;100.00;100165.00;4432950;32;20090;-67
2020/12/10 06:12:06;;;;;;;1.40;1.40;;;;;;;-2.92;100.00;100168.56;4437211;32;20612;-69
2020/12/10 06:14:31;;;;;;;1.40;1.40;;;;;;;-2.95;100.00;100169.69;4420902;32;20065;-68
2020/12/10 06:17:06;;;;;;;1.20;1.20;;;;;;;-3.03;100.00;100172.97;4413288;32;20078;-68
2020/12/10 06:19:32;;;;;;;1.20;1.20;;;;;;;-3.12;100.00;100165.91;4412684;32;20075;-69
2020/12/10 06:21:57;;;;;;;1.20;1.20;;;;;;;-3.10;100.00;100165.78;4428973;32;20068;-69
2020/12/10 06:24:25;;;;;;;1.40;1.40;;;;;;;-3.12;100.00;100158.06;4414563;32;20687;-68
2020/12/10 06:26:58;;;;;;;1.37;1.37;;;;;;;-3.27;100.00;100136.69;4422252;32;20115;-69
2020/12/10 06:29:28;;;;;;;1.33;1.33;;;;;;;-3.06;100.00;100165.38;4399383;32;20072;-68
2020/12/10 06:32:00;;;;;;;1.77;1.77;;;;;;;-3.10;100.00;100161.38;4417228;32;20735;-68
2020/12/10 06:34:58;;;;;;;1.60;1.60;;;;;;;-3.14;100.00;100159.16;4425368;32;20082;-68
2020/12/10 06:37:28;;;;;;;1.17;1.17;;;;;;;-3.38;100.00;100128.94;4417533;32;20061;-69
2020/12/10 06:40:03;;;;;;;1.55;1.55;;;;;;;-3.96;100.00;100035.44;4431478;32;20149;-69
2020/12/10 06:42:47;;;;;;;1.30;1.30;;;;;;;-3.17;100.00;100167.25;4423838;32;20579;-69
2020/12/10 06:45:31;;;;;;;1.70;1.60;;;;;;;-3.14;100.00;100156.53;4415025;32;20079;-69
2020/12/10 06:47:56;;;;;;;1.20;1.20;;;;;;;-3.20;100.00;100139.59;4420993;32;20068;-70
2020/12/10 06:50:26;;;;;;;1.30;1.30;;;;;;;-3.13;100.00;100158.19;4426908;32;20115;-70
2020/12/10 06:53:07;;;;;;;1.30;1.30;;;;;;;-3.15;100.00;100157.50;4420542;32;20077;-70
2020/12/10 06:55:33;;;;;;;1.60;1.60;;;;;;;-3.14;100.00;100165.22;4404872;32;20061;-69
2020/12/10 06:58:03;;;;;;;1.55;1.55;;;;;;;-3.70;100.00;100077.63;4393185;32;20123;-69
2020/12/10 07:00:40;;;;;;;1.60;1.60;;;;;;;-3.11;100.00;100175.41;4388222;32;20077;-70
2020/12/10 07:03:34;;;;;;;2.05;1.95;;;;;;;-3.08;100.00;100164.69;4393483;32;20096;-68
2020/12/10 07:06:18;;;;;;;1.60;1.60;;;;;;;-3.09;100.00;100168.25;4410248;32;20085;-72
2020/12/10 07:09:03;;;;;;;1.55;1.55;;;;;;;-3.11;100.00;100174.59;4380897;32;20088;-73
2020/12/10 07:11:30;;;;;;;2.00;1.90;;;;;;;-3.03;100.00;100172.97;4389334;32;20087;-69
2020/12/10 07:13:58;;;;;;;1.60;1.60;;;;;;;-3.01;100.00;100180.69;4384885;32;20593;-70
2020/12/10 07:16:28;;;;;;;1.80;1.80;;;;;;;-3.02;100.00;100179.84;4381198;32;20228;-72
2020/12/10 07:18:54;;;;;;;1.80;1.80;;;;;;;-3.04;100.00;100189.59;4394797;32;20123;-70
2020/12/10 07:21:21;;;;;;;1.30;1.30;;;;;;;-3.01;100.00;100185.91;4396833;32;20483;-69
2020/12/10 07:23:46;;;;;;;1.58;1.58;;;;;;;-3.04;100.00;100194.84;4417558;32;20278;-71
2020/12/10 07:26:11;;;;;;;2.03;1.92;;;;;;;-2.98;100.00;100187.41;4407277;32;20641;-71
2020/12/10 07:28:37;;;;;;;1.20;1.20;;;;;;;-2.97;100.00;100186.47;4398879;32;20347;-70
2020/12/10 07:31:02;;;;;;;1.92;1.75;;;;;;;-3.00;100.00;100187.56;4408891;32;20080;-70
2020/12/10 07:33:28;;;;;;;1.40;1.40;;;;;;;-3.00;100.00;100190.19;4413035;32;20072;-69
2020/12/10 07:35:53;;;;;;;1.30;1.30;;;;;;;-2.94;100.00;100196.69;4410395;32;20072;-68
2020/12/10 07:38:18;;;;;;;1.30;1.30;;;;;;;-2.95;100.00;100189.78;4403154;32;20368;-70
2020/12/10 07:40:51;;;;;;;1.60;1.60;;;;;;;-3.30;100.00;100134.31;4393520;32;20259;-69
2020/12/10 07:43:17;;;;;;;3.47;3.35;;;;;;;-2.92;100.00;100199.97;4419511;32;20081;-70
2020/12/10 07:45:42;;;;;;;1.98;1.90;;;;;;;-2.88;100.00;100196.13;4429167;32;20069;-70
2020/12/10 07:48:08;;;;;;;1.55;1.55;;;;;;;-2.85;100.00;100193.25;4425088;32;20153;-69
2020/12/10 07:50:35;;;;;;;1.50;1.50;;;;;;;-2.85;100.00;100190.63;4417054;32;20123;-69
2020/12/10 07:53:07;;;;;;;1.45;1.45;;;;;;;-2.80;100.00;100193.69;4406925;32;20084;-69
2020/12/10 07:55:34;;;;;;;1.30;1.30;;;;;;;-2.80;100.00;100182.38;4408417;32;20571;-70
2020/12/10 07:58:11;;;;;;;1.40;1.40;;;;;;;-3.66;100.00;100052.06;4405299;32;20093;-70
2020/12/10 08:00:43;;;;;;;1.60;1.60;;;;;;;-2.84;100.00;100187.06;4394755;32;20073;-69
2020/12/10 08:03:28;;;;;;;1.40;1.40;;;;;;;-3.43;100.00;100107.59;4387342;32;20690;-69
2020/12/10 08:05:59;;;;;;;1.30;1.30;;;;;;;-3.24;100.00;100117.28;4404646;32;20636;-69
2020/12/10 08:08:47;;;;;;;1.30;1.30;;;;;;;-2.72;100.00;100182.53;4404361;32;20599;-68
2020/12/10 08:11:16;;;;;;;1.20;1.20;;;;;;;-2.66;100.00;100180.22;4388442;32;20081;-70
2020/12/10 08:14:11;;;;;;;1.20;1.20;;;;;;;-2.61;100.00;100176.34;4394208;32;20156;-69
2020/12/10 08:16:44;;;;;;;1.30;1.30;;;;;;;-2.54;100.00;100182.69;4396319;32;20525;-69
2020/12/10 08:19:20;;;;;;;1.50;1.50;;;;;;;-2.50;100.00;100184.06;4404717;32;20072;-69
2020/12/10 08:21:47;;;;;;;1.20;1.20;;;;;;;-2.47;100.00;100168.94;4410430;32;20153;-68
2020/12/10 08:24:18;;;;;;;1.30;1.30;;;;;;;-2.36;100.00;100181.06;4411927;32;20574;-71
2020/12/10 08:26:43;;;;;;;1.50;1.50;;;;;;;-2.31;100.00;100178.84;4409022;32;20073;-69
2020/12/10 08:29:13;;;;;;;1.40;1.40;;;;;;;-2.26;100.00;100175.81;4413123;32;20219;-68
2020/12/10 08:31:39;;;;;;;1.33;1.33;;;;;;;-2.25;100.00;100176.66;4405255;32;20530;-69
2020/12/10 08:34:14;;;;;;;1.40;1.40;;;;;;;-2.42;100.00;100165.87;4399022;32;20134;-69
2020/12/10 08:36:39;;;;;;;1.30;1.30;;;;;;;-2.22;100.00;100176.37;4387034;32;20734;-67
2020/12/10 08:39:05;;;;;;;1.40;1.40;;;;;;;-2.18;100.00;100180.38;4417331;32;20087;-70
2020/12/10 08:41:32;;;;;;;1.40;1.40;;;;;;;-2.13;100.00;100183.41;4383649;32;20334;-69
2020/12/10 08:44:02;;;;;;;1.30;1.30;;;;;;;-2.04;100.00;100182.56;4418788;32;20108;-69
2020/12/10 08:46:28;;;;;;;1.40;1.40;;;;;;;-2.02;100.00;100177.19;4415199;32;20069;-69
2020/12/10 08:48:55;;;;;;;1.37;1.37;;;;;;;-1.98;100.00;100179.37;4415521;32;20490;-70
2020/12/10 08:51:21;;;;;;;1.30;1.30;;;;;;;-1.94;100.00;100183.37;4411106;32;20195;-69
2020/12/10 08:53:50;;;;;;;1.30;1.30;;;;;;;-1.84;100.00;100178.12;4411312;32;20104;-69
2020/12/10 08:56:22;;;;;;;1.80;1.80;;;;;;;-1.77;100.00;100183.63;4410564;32;20081;-68
2020/12/10 08:58:48;;;;;;;1.23;1.23;;;;;;;-1.73;100.00;100188.44;4410516;32;20092;-68
2020/12/10 09:01:13;;;;;;;1.20;1.20;;;;;;;-1.67;100.00;100178.34;4421221;32;20056;-70
2020/12/10 09:03:39;;;;;;;1.30;1.30;;;;;;;-1.61;100.00;100185.66;4402789;32;20275;-69
2020/12/10 09:06:04;;;;;;;1.40;1.40;;;;;;;-1.59;100.00;100179.28;4407554;32;20648;-68
2020/12/10 09:08:30;;;;;;;1.87;1.77;;;;;;;-1.63;100.00;100161.38;4404613;32;20135;-68
2020/12/10 09:10:58;;;;;;;1.45;1.40;;;;;;;-1.41;100.00;100181.19;4404108;32;20150;-68
2020/12/10 09:13:24;;;;;;;1.37;1.37;;;;;;;-1.37;100.00;100172.06;4411037;32;20610;-69
2020/12/10 09:15:50;;;;;;;1.30;1.30;;;;;;;-1.43;100.00;100152.47;4409835;32;22393;-69
2020/12/10 09:21:37;;;;;;;1.40;1.40;;;;;;;-1.19;100.00;100169.47;4416613;32;21030;-70
2020/12/10 09:24:03;;;;;;;2.03;1.92;;;;;;;-2.05;100.00;100021.06;4409096;32;20072;-69
2020/12/10 09:26:28;;;;;;;1.50;1.50;;;;;;;-0.94;100.00;100181.09;4404058;32;20068;-69
2020/12/10 09:28:54;;;;;;;1.30;1.30;;;;;;;-0.92;100.00;100187.03;4411380;32;20127;-69
2020/12/10 09:31:19;;;;;;;1.25;1.25;;;;;;;-0.89;100.00;100180.69;4420142;32;20159;-69
2020/12/10 09:33:45;;;;;;;1.40;1.40;;;;;;;-0.83;100.00;100175.66;4404828;32;20134;-70
2020/12/10 09:36:10;;;;;;;1.50;1.50;;;;;;;-0.71;100.00;100178.88;4405713;32;20084;-70
2020/12/10 09:38:39;;;;;;;2.30;2.20;;;;;;;-0.66;100.00;100171.41;4411550;32;20448;-71
2020/12/10 09:41:05;;;;;;;1.62;1.62;;;;;;;-0.61;100.00;100171.78;4415671;32;20072;-68
2020/12/10 09:43:30;;;;;;;1.40;1.40;;;;;;;-0.56;99.72;100171.34;4407611;32;20538;-69
2020/12/10 09:46:02;;;;;;;1.40;1.40;;;;;;;-0.61;99.09;100148.13;4400534;32;20069;-75
2020/12/10 09:48:28;;;;;;;1.50;1.50;;;;;;;-0.41;99.44;100167.22;4426277;32;20086;-68
2020/12/10 09:50:53;;;;;;;2.05;1.95;;;;;;;-0.32;98.80;100172.56;4415948;32;20081;-71
2020/12/10 09:53:29;;;;;;;1.30;1.30;;;;;;;-0.31;98.64;100172.41;4418510;32;20162;-69
2020/12/10 09:58:22;;;;;;;4.00;2.22;;;;;;;-0.14;97.60;100181.22;4395187;32;20138;-70
2020/12/10 10:00:51;;;;;;;1.50;1.50;;;;;;;-0.07;97.13;100182.31;4408001;32;20092;-69
2020/12/10 10:03:19;;;;;;;1.70;1.70;;;;;;;0.02;96.06;100182.34;4384756;32;20107;-70
2020/12/10 10:05:44;;;;;;;1.83;1.80;;;;;;;0.11;95.83;100184.06;4381951;32;20103;-67
2020/12/10 10:08:10;;;;;;;1.70;1.70;;;;;;;0.15;95.41;100180.16;4395349;32;20697;-68
2020/12/10 10:10:35;;;;;;;2.37;2.22;;;;;;;0.23;95.40;100182.84;4392697;32;20096;-68
2020/12/10 10:13:01;;;;;;;1.87;1.83;;;;;;;0.41;95.44;100180.16;4366843;32;20689;-67
2020/12/10 10:15:27;;;;;;;1.77;1.77;;;;;;;0.51;94.39;100172.16;4389644;32;20622;-68
2020/12/10 10:17:52;;;;;;;1.58;1.58;;;;;;;0.65;93.57;100181.28;4397731;32;20081;-69
2020/12/10 10:20:17;;;;;;;2.00;1.90;;;;;;;0.75;92.99;100177.53;4400272;32;20077;-69
2020/12/10 10:22:43;;;;;;;1.92;1.83;;;;;;;0.94;93.01;100176.47;4401242;32;20088;-69
2020/12/10 10:25:08;;;;;;;2.20;2.10;;;;;;;0.96;91.73;100168.41;4390541;32;20110;-68
2020/12/10 10:27:34;;;;;;;1.60;1.60;;;;;;;1.24;90.89;100178.72;4397528;32;20088;-68
2020/12/10 10:29:59;;;;;;;1.85;1.83;;;;;;;1.39;90.68;100179.72;4400740;32;20108;-68
2020/12/10 10:32:25;;;;;;;1.50;1.50;;;;;;;1.45;88.48;100173.84;4379871;32;20575;-68
2020/12/10 10:34:50;;;;;;;1.70;1.70;;;;;;;1.40;87.72;100147.12;4385103;32;20092;-69
2020/12/10 10:37:16;;;;;;;1.60;1.60;;;;;;;1.66;86.88;100167.28;4398088;32;20078;-70
2020/12/10 10:39:41;;;;;;;1.90;1.85;;;;;;;1.74;86.50;100163.81;4397441;32;20097;-71
2020/12/10 10:42:07;;;;;;;1.70;1.70;;;;;;;1.88;86.00;100158.72;4398136;32;20595;-70
2020/12/10 10:44:32;;;;;;;2.25;2.15;;;;;;;2.02;85.21;100162.50;4394529;32;20709;-68
2020/12/10 10:46:57;;;;;;;2.12;2.03;;;;;;;2.11;85.17;100157.22;4392267;32;20598;-68
2020/12/10 10:49:23;;;;;;;1.62;1.62;;;;;;;2.11;84.79;100154.56;4400911;32;20587;-69
2020/12/10 10:51:48;;;;;;;2.65;2.55;;;;;;;2.08;85.51;100153.09;4398469;32;20214;-68
2020/12/10 10:54:14;;;;;;;1.85;1.83;;;;;;;1.81;84.05;100112.91;4397944;32;20080;-70
2020/12/10 10:56:39;;;;;;;2.08;1.98;;;;;;;1.98;84.66;100147.16;4394044;32;20092;-70
2020/12/10 10:59:05;;;;;;;2.00;1.90;;;;;;;1.94;84.44;100141.38;4408806;32;20695;-68
2020/12/10 11:01:30;;;;;;;1.80;1.80;;;;;;;1.98;85.37;100140.06;4395908;32;21176;-68
2020/12/10 11:03:56;;;;;;;1.80;1.80;;;;;;;1.93;84.77;100144.19;4397013;32;20085;-69
2020/12/10 11:06:21;;;;;;;1.85;1.85;;;;;;;1.76;84.10;100138.94;4411909;32;20578;-70
2020/12/10 11:08:47;;;;;;;1.60;1.60;;;;;;;1.72;84.65;100131.50;4400556;32;20097;-70
2020/12/10 11:11:17;;;;;;;2.50;2.40;;;;;;;1.74;83.92;100140.06;4396317;32;20613;-71
2020/12/10 11:13:45;;;;;;;1.85;1.85;;;;;;;1.80;84.06;100134.97;4386143;32;20087;-72
2020/12/10 11:16:11;;;;;;;1.80;1.80;;;;;;;1.90;84.70;100128.69;4410550;32;20139;-71
2020/12/10 11:18:36;;;;;;;1.83;1.80;;;;;;;1.66;84.50;100096.09;4405548;32;20211;-72
2020/12/10 11:21:02;;;;;;;1.77;1.77;;;;;;;1.97;85.29;100125.25;4406360;32;20564;-71
2020/12/10 11:23:30;;;;;;;2.20;2.10;;;;;;;2.03;84.41;100131.66;4414608;32;20076;-71
2020/12/10 11:25:55;;;;;;;5.07;2.33;;;;;;;2.08;83.38;100126.69;4408199;32;20328;-72